Time;durP1;ratioP1;P1;durP2;ratioP2;P2;SDS_P1;SDS_P2;PMS_P1;PMS_P2;Temp;Humidity;BMP_temperature;BMP_pressure;BME280_temperature;BME280_humidity;BME280_pressure;Samples;Min_cycle;Max_cycle;Signal;HPM_P1;HPM_P2
2023/04/29 00:02:57;;;;;;;5.67;2.33;;;17.00;99.90;;;;;;1936457;72;22244;-77
2023/04/29 00:05:48;;;;;;;3.95;2.33;;;16.90;99.90;;;;;;1913154;75;21086;-77
2023/04/29 00:08:41;;;;;;;3.45;2.05;;;16.90;99.90;;;;;;1889700;75;21280;-77
2023/04/29 00:11:32;;;;;;;2.98;2.20;;;16.80;99.90;;;;;;1886129;75;21106;-77
2023/04/29 00:14:24;;;;;;;4.17;2.08;;;16.80;99.90;;;;;;1885282;75;21635;-76
2023/04/29 00:17:16;;;;;;;6.47;2.00;;;16.80;99.90;;;;;;1914586;75;21630;-76
2023/04/29 00:20:10;;;;;;;2.40;2.02;;;16.80;99.90;;;;;;1913769;75;21109;-77
2023/04/29 00:23:02;;;;;;;4.45;2.17;;;16.80;99.90;;;;;;1884198;75;21106;-77
2023/04/29 00:28:32;;;;;;;3.65;2.27;;;16.70;99.90;;;;;;1939430;72;22802;-77
2023/04/29 00:31:24;;;;;;;4.28;2.00;;;16.70;99.90;;;;;;1888958;75;21192;-77
2023/04/29 00:34:15;;;;;;;3.98;1.87;;;16.70;99.90;;;;;;1876815;75;21114;-79
2023/04/29 00:37:06;;;;;;;2.67;1.82;;;16.70;99.90;;;;;;1890403;75;21095;-77
2023/04/29 00:39:58;;;;;;;2.92;1.50;;;16.70;99.90;;;;;;1878756;75;21107;-77
2023/04/29 00:42:49;;;;;;;2.40;1.40;;;16.80;99.90;;;;;;1882101;75;21146;-77
2023/04/29 00:45:41;;;;;;;4.40;1.52;;;16.90;99.90;;;;;;1878321;75;21164;-77
2023/04/29 00:48:33;;;;;;;3.15;1.10;;;17.00;99.90;;;;;;1848084;77;21125;-77
2023/04/29 00:51:24;;;;;;;2.62;1.12;;;17.10;99.90;;;;;;1873032;75;21067;-77
2023/04/29 00:54:16;;;;;;;2.55;1.25;;;17.20;99.90;;;;;;1893812;75;21102;-77
2023/04/29 00:57:08;;;;;;;3.08;1.12;;;17.20;99.90;;;;;;1811326;78;21212;-77
2023/04/29 01:02:39;;;;;;;1.60;1.30;;;17.30;99.90;;;;;;1941372;72;22204;-78
2023/04/29 01:05:31;;;;;;;1.90;1.10;;;17.30;99.90;;;;;;1905302;75;21106;-78
2023/04/29 01:11:07;;;;;;;2.17;1.40;;;17.40;99.90;;;;;;1939670;72;23026;-76
2023/04/29 01:14:02;;;;;;;3.83;2.08;;;17.50;99.90;;;;;;1913757;75;21105;-76
2023/04/29 01:16:55;;;;;;;3.72;2.10;;;17.60;99.90;;;;;;1886877;75;21156;-76
2023/04/29 01:19:50;;;;;;;4.08;1.92;;;17.50;99.90;;;;;;1886876;75;21223;-76
2023/04/29 01:25:23;;;;;;;2.30;1.55;;;17.50;99.90;;;;;;1943395;72;22285;-76
2023/04/29 01:28:37;;;;;;;3.37;1.65;;;17.60;99.90;;;;;;1923269;73;21096;-76
2023/04/29 01:31:32;;;;;;;2.60;1.92;;;17.50;99.90;;;;;;1923347;73;21153;-77
2023/04/29 01:34:27;;;;;;;2.83;2.20;;;17.50;99.90;;;;;;1932155;73;21115;-77
2023/04/29 01:37:22;;;;;;;3.33;2.02;;;17.60;99.90;;;;;;1944286;73;21094;-76
2023/04/29 01:40:18;;;;;;;4.12;1.90;;;17.60;99.90;;;;;;1927283;73;21158;-76
2023/04/29 01:45:56;;;;;;;4.47;2.12;;;17.50;99.90;;;;;;1932144;72;22726;-76
2023/04/29 01:48:47;;;;;;;2.77;2.20;;;17.50;99.90;;;;;;1904588;75;21135;-77
2023/04/29 01:51:39;;;;;;;3.65;2.12;;;17.50;99.90;;;;;;1884116;75;21076;-77
2023/04/29 01:54:30;;;;;;;4.33;2.20;;;17.50;99.90;;;;;;1897647;75;21049;-78
2023/04/29 01:57:22;;;;;;;4.15;2.37;;;17.60;99.90;;;;;;1913040;75;21097;-77
2023/04/29 02:02:54;;;;;;;6.37;2.40;;;17.50;99.90;;;;;;1949714;72;22256;-76
2023/04/29 02:05:53;;;;;;;2.12;1.72;;;17.50;99.90;;;;;;1938561;73;21548;-78
2023/04/29 02:08:44;;;;;;;3.35;1.85;;;17.50;99.90;;;;;;1917060;75;21052;-78
2023/04/29 02:11:36;;;;;;;2.10;1.85;;;17.50;99.90;;;;;;1922397;73;21105;-77
2023/04/29 02:17:07;;;;;;;4.28;2.00;;;17.50;99.90;;;;;;1930996;72;22159;-76
2023/04/29 02:22:42;;;;;;;4.25;2.10;;;17.50;99.90;;;;;;1938698;72;22217;-77
2023/04/29 02:28:12;;;;;;;5.33;2.08;;;17.50;99.90;;;;;;1947885;72;22267;-77
2023/04/29 02:33:44;;;;;;;2.87;1.67;;;17.50;99.90;;;;;;1949585;72;22600;-76
2023/04/29 02:36:35;;;;;;;3.08;1.82;;;17.50;99.90;;;;;;1900581;75;21634;-77
2023/04/29 02:39:26;;;;;;;3.98;2.10;;;17.40;99.90;;;;;;1884170;75;21117;-76
2023/04/29 02:42:19;;;;;;;3.40;2.15;;;17.40;99.90;;;;;;1892871;75;21157;-77
2023/04/29 02:47:50;;;;;;;2.22;2.00;;;17.40;99.90;;;;;;1927678;72;22155;-77
2023/04/29 02:50:41;;;;;;;3.52;1.70;;;17.40;99.90;;;;;;1892331;75;21108;-76
2023/04/29 02:53:32;;;;;;;3.65;2.40;;;17.40;99.90;;;;;;1908070;75;21199;-76
2023/04/29 02:59:03;;;;;;;2.25;1.70;;;17.40;99.90;;;;;;1945478;72;22157;-77
2023/04/29 03:01:55;;;;;;;3.30;2.20;;;17.30;99.90;;;;;;1931585;74;21059;-76
2023/04/29 03:04:46;;;;;;;3.02;1.85;;;17.10;99.90;;;;;;1902422;75;21077;-76
2023/04/29 03:07:37;;;;;;;3.12;1.90;;;17.00;99.90;;;;;;1920075;74;21098;-76
2023/04/29 03:13:08;;;;;;;4.08;1.57;;;16.40;99.90;;;;;;1931559;72;22193;-77
2023/04/29 03:16:00;;;;;;;2.37;1.22;;;16.30;99.90;;;;;;1887668;75;21537;-79
2023/04/29 03:18:51;;;;;;;1.40;0.88;;;16.10;99.90;;;;;;1902182;75;21204;-79
2023/04/29 03:21:43;;;;;;;3.20;1.32;;;16.00;99.90;;;;;;1903604;75;21588;-79
2023/04/29 03:24:35;;;;;;;2.70;1.27;;;16.00;99.90;;;;;;1893147;74;21093;-78
2023/04/29 03:27:26;;;;;;;0.50;0.50;;;15.90;99.90;;;;;;1888128;74;21132;-78
2023/04/29 03:32:56;;;;;;;0.90;0.68;;;16.40;99.90;;;;;;1951504;72;22142;-77
2023/04/29 03:38:27;;;;;;;2.35;0.90;;;16.50;99.90;;;;;;1945088;72;22216;-77
2023/04/29 03:41:18;;;;;;;2.95;1.00;;;16.40;99.90;;;;;;1894862;74;21176;-77
2023/04/29 03:44:10;;;;;;;2.62;1.22;;;16.30;99.90;;;;;;1910915;75;21089;-77
2023/04/29 03:49:40;;;;;;;4.45;1.05;;;16.10;99.90;;;;;;1919983;72;22252;-76
2023/04/29 03:52:31;;;;;;;4.50;1.10;;;15.90;99.90;;;;;;1927273;73;21180;-76
2023/04/29 03:58:03;;;;;;;3.40;1.10;;;15.70;99.90;;;;;;1943085;72;22284;-77
2023/04/29 04:03:35;;;;;;;5.37;1.17;;;15.50;99.90;;;;;;1942817;72;22110;-76
2023/04/29 04:06:27;;;;;;;2.52;1.40;;;15.50;99.90;;;;;;1892761;75;21168;-78
2023/04/29 04:09:22;;;;;;;3.05;1.20;;;15.60;99.90;;;;;;1906331;75;21125;-78
2023/04/29 04:12:14;;;;;;;4.25;0.93;;;15.50;99.90;;;;;;1913196;75;21185;-77
2023/04/29 04:17:48;;;;;;;1.45;0.78;;;15.50;99.90;;;;;;1938152;72;22672;-76
2023/04/29 04:23:19;;;;;;;2.35;1.00;;;15.50;99.90;;;;;;1952053;72;22131;-76
2023/04/29 04:28:49;;;;;;;1.72;0.98;;;15.60;99.90;;;;;;1941514;72;22314;-77
2023/04/29 04:31:47;;;;;;;1.45;0.85;;;15.60;99.90;;;;;;1897685;75;21088;-79
2023/04/29 04:34:39;;;;;;;2.35;1.12;;;15.50;99.90;;;;;;1885037;75;21154;-77
2023/04/29 04:37:32;;;;;;;1.82;0.90;;;15.40;99.90;;;;;;1912882;75;21203;-77
2023/04/29 04:43:03;;;;;;;4.53;1.62;;;15.40;99.90;;;;;;1943781;72;22260;-77
2023/04/29 04:45:55;;;;;;;2.15;1.10;;;15.40;99.90;;;;;;1897586;75;21151;-76
2023/04/29 04:51:27;;;;;;;1.87;1.10;;;15.50;99.90;;;;;;1929594;72;22133;-77
2023/04/29 04:54:18;;;;;;;1.22;0.90;;;15.60;99.90;;;;;;1916423;74;21106;-78
2023/04/29 04:57:11;;;;;;;1.98;1.17;;;15.50;99.90;;;;;;1916955;74;21120;-77
2023/04/29 05:02:42;;;;;;;5.85;1.42;;;15.60;99.90;;;;;;1925458;72;22248;-77
2023/04/29 05:08:13;;;;;;;2.50;1.30;;;15.60;99.90;;;;;;1938255;72;22192;-77
2023/04/29 05:11:06;;;;;;;3.62;1.40;;;15.60;99.90;;;;;;1915094;75;21145;-77
2023/04/29 05:13:57;;;;;;;1.75;1.27;;;15.60;99.90;;;;;;1916831;75;21224;-78
2023/04/29 05:16:51;;;;;;;4.67;1.60;;;15.70;99.90;;;;;;1916468;75;21118;-79
2023/04/29 05:19:43;;;;;;;3.47;1.22;;;15.80;99.90;;;;;;1904857;75;21131;-77
2023/04/29 05:22:35;;;;;;;2.27;1.40;;;15.90;99.90;;;;;;1884039;75;21155;-77
2023/04/29 05:28:07;;;;;;;2.50;1.40;;;16.00;99.90;;;;;;1940813;72;22170;-78
2023/04/29 05:30:59;;;;;;;2.55;1.40;;;15.90;99.90;;;;;;1907460;75;21159;-76
2023/04/29 05:33:53;;;;;;;4.05;1.42;;;15.90;99.90;;;;;;1902476;75;21578;-77
2023/04/29 05:36:45;;;;;;;3.15;1.60;;;15.90;99.90;;;;;;1884853;75;21164;-77
2023/04/29 05:39:36;;;;;;;4.05;1.30;;;15.90;99.90;;;;;;1890311;75;21996;-77
2023/04/29 05:42:30;;;;;;;2.00;1.40;;;16.00;99.90;;;;;;1912190;75;21102;-77
2023/04/29 05:48:05;;;;;;;3.37;1.30;;;16.00;99.90;;;;;;1930708;72;22178;-76
2023/04/29 05:53:39;;;;;;;3.75;1.67;;;16.00;99.90;;;;;;1940573;72;22177;-78
2023/04/29 05:59:08;;;;;;;2.02;1.60;;;16.10;99.90;;;;;;1953692;72;22290;-76
2023/04/29 06:04:40;;;;;;;4.00;1.90;;;16.10;99.90;;;;;;1940213;72;22127;-77
2023/04/29 06:07:33;;;;;;;3.22;1.30;;;16.10;99.90;;;;;;1899907;75;21091;-77
2023/04/29 06:13:05;;;;;;;6.40;1.85;;;16.30;99.90;;;;;;1936577;72;22213;-76
2023/04/29 06:18:36;;;;;;;2.75;2.15;;;16.30;99.90;;;;;;1935079;72;22295;-77
2023/04/29 06:21:28;;;;;;;2.60;1.82;;;16.40;99.90;;;;;;1915000;73;21570;-77
2023/04/29 06:24:19;;;;;;;3.95;2.40;;;16.50;99.90;;;;;;1899721;75;21113;-77
2023/04/29 06:32:32;;;;;;;6.25;3.15;;;16.80;99.90;;;;;;1950085;72;22204;-77
2023/04/29 06:38:03;;;;;;;3.67;2.45;;;16.90;99.90;;;;;;1919893;72;22172;-77
2023/04/29 06:43:52;;;;;;;6.65;2.30;;;16.90;99.90;;;;;;1937961;72;22345;-77
2023/04/29 06:49:43;;;;;;;5.87;2.90;;;16.80;99.90;;;;;;1955672;72;22246;-79
2023/04/29 06:52:34;;;;;;;11.20;3.00;;;16.80;99.90;;;;;;1907436;75;21160;-77
2023/04/29 06:58:04;;;;;;;3.65;2.17;;;16.80;99.90;;;;;;1947609;72;22123;-77
2023/04/29 07:00:56;;;;;;;2.72;2.10;;;16.90;99.90;;;;;;1910857;75;21138;-79
2023/04/29 07:03:48;;;;;;;4.03;2.33;;;16.90;99.90;;;;;;1913231;75;21525;-77
2023/04/29 07:09:26;;;;;;;2.60;1.70;;;16.80;99.90;;;;;;1934377;72;22660;-77
2023/04/29 07:12:17;;;;;;;4.10;1.50;;;16.60;99.90;;;;;;1897506;75;21086;-78
2023/04/29 07:17:56;;;;;;;3.22;1.67;;;16.70;99.90;;;;;;1929348;72;22220;-78
2023/04/29 07:23:26;;;;;;;3.33;1.50;;;16.70;99.90;;;;;;1937331;72;22162;-77
2023/04/29 07:28:57;;;;;;;3.17;1.72;;;16.80;99.90;;;;;;1933370;72;22279;-79
2023/04/29 07:31:49;;;;;;;3.55;1.60;;;16.90;99.90;;;;;;1901445;74;21243;-78
2023/04/29 07:34:40;;;;;;;2.90;1.52;;;16.90;99.90;;;;;;1898654;74;21157;-77
2023/04/29 07:37:32;;;;;;;2.70;1.75;;;17.00;99.90;;;;;;1893109;75;21049;-77
2023/04/29 07:43:05;;;;;;;3.10;1.57;;;17.00;99.90;;;;;;1930774;72;22246;-78
2023/04/29 07:45:56;;;;;;;3.72;1.85;;;17.00;99.90;;;;;;1881764;75;21483;-78
2023/04/29 07:48:48;;;;;;;2.62;1.52;;;17.00;99.90;;;;;;1893804;75;21362;-78
2023/04/29 07:51:42;;;;;;;2.55;1.42;;;17.00;99.90;;;;;;1876000;74;21138;-79
2023/04/29 07:54:34;;;;;;;4.05;1.82;;;17.00;99.90;;;;;;1875440;75;21574;-78
2023/04/29 07:57:25;;;;;;;2.33;1.70;;;17.00;99.90;;;;;;1890038;75;21199;-76
2023/04/29 08:02:57;;;;;;;3.10;1.75;;;17.10;99.90;;;;;;1951471;72;22095;-78
2023/04/29 08:08:32;;;;;;;3.33;2.25;;;17.20;99.90;;;;;;1934937;72;22132;-77
2023/04/29 08:14:05;;;;;;;3.08;2.45;;;17.30;99.90;;;;;;1932443;72;22158;-76
2023/04/29 08:16:57;;;;;;;3.20;2.05;;;17.40;99.90;;;;;;1900602;74;21086;-77
2023/04/29 08:19:48;;;;;;;2.75;2.08;;;17.50;99.90;;;;;;1908532;74;21113;-78
2023/04/29 08:22:41;;;;;;;2.72;1.95;;;17.60;99.90;;;;;;1862390;76;21165;-77
2023/04/29 08:25:32;;;;;;;3.10;2.10;;;17.70;99.90;;;;;;1907624;74;21166;-77
2023/04/29 08:28:27;;;;;;;2.50;2.20;;;17.80;99.90;;;;;;1902837;75;21094;-78
2023/04/29 08:31:19;;;;;;;4.60;2.83;;;17.90;99.90;;;;;;1898818;74;21118;-78
2023/04/29 08:34:10;;;;;;;3.52;2.72;;;18.20;99.90;;;;;;1913342;74;21054;-77
2023/04/29 08:39:42;;;;;;;3.45;3.12;;;18.90;99.90;;;;;;1946189;72;22234;-78
2023/04/29 08:42:36;;;;;;;3.90;3.52;;;19.10;99.90;;;;;;1928198;73;21108;-78
2023/04/29 08:48:13;;;;;;;4.03;3.27;;;18.90;99.90;;;;;;1940543;72;22123;-77
2023/04/29 08:51:05;;;;;;;3.65;3.35;;;18.90;99.90;;;;;;1913037;74;21109;-78
2023/04/29 08:53:57;;;;;;;6.03;4.15;;;19.10;99.90;;;;;;1937004;73;21136;-78
2023/04/29 08:59:28;;;;;;;6.03;3.92;;;19.30;99.90;;;;;;1946662;72;22287;-77
2023/04/29 09:02:21;;;;;;;4.90;4.35;;;19.40;99.90;;;;;;1932445;74;21244;-79
2023/04/29 09:05:13;;;;;;;4.20;3.80;;;19.40;99.90;;;;;;1910067;74;21132;-77
2023/04/29 09:08:06;;;;;;;4.78;4.03;;;19.50;99.90;;;;;;1921723;74;21107;-77
2023/04/29 09:13:41;;;;;;;4.33;3.00;;;19.80;99.90;;;;;;1961385;72;22154;-77
2023/04/29 09:16:32;;;;;;;4.78;3.10;;;19.90;99.90;;;;;;1920657;73;21487;-77
2023/04/29 09:22:12;;;;;;;3.30;2.85;;;20.20;99.90;;;;;;1946385;72;22254;-77
2023/04/29 09:27:54;;;;;;;3.70;3.10;;;20.20;99.90;;;;;;1930780;72;22185;-78
2023/04/29 09:33:30;;;;;;;3.27;2.55;;;20.20;99.90;;;;;;1950365;72;22616;-78
2023/04/29 09:39:27;;;;;;;5.00;2.87;;;20.20;99.90;;;;;;1948821;72;22261;-78
2023/04/29 09:42:18;;;;;;;2.83;2.62;;;20.30;99.90;;;;;;1896502;75;21145;-77
2023/04/29 09:48:01;;;;;;;6.22;2.75;;;20.20;99.90;;;;;;1909980;72;22227;-78
2023/04/29 09:53:42;;;;;;;2.42;2.15;;;19.80;99.90;;;;;;1936799;72;22231;-79
2023/04/29 09:59:13;;;;;;;4.72;2.10;;;19.50;99.90;;;;;;1941077;72;22160;-76
2023/04/29 10:02:09;;;;;;;3.60;2.33;;;19.30;99.90;;;;;;1913485;74;21234;-76
2023/04/29 10:07:41;;;;;;;2.52;2.02;;;19.20;99.90;;;;;;1948815;72;22236;-77
2023/04/29 10:13:11;;;;;;;3.10;2.20;;;19.30;99.90;;;;;;1934003;72;22179;-78
2023/04/29 10:18:44;;;;;;;3.60;1.70;;;19.40;99.90;;;;;;1952417;72;22165;-78
2023/04/29 10:21:35;;;;;;;2.72;1.70;;;19.40;99.90;;;;;;1904912;75;21106;-77
2023/04/29 10:24:27;;;;;;;2.92;1.37;;;19.30;99.90;;;;;;1900544;75;21054;-77
2023/04/29 10:27:20;;;;;;;2.22;1.40;;;19.30;99.90;;;;;;1915560;75;21131;-77
2023/04/29 10:32:59;;;;;;;3.25;1.60;;;19.40;99.90;;;;;;1943981;72;22757;-77
2023/04/29 10:35:52;;;;;;;1.82;1.55;;;19.50;99.90;;;;;;1924675;73;21043;-76
2023/04/29 10:38:48;;;;;;;3.30;1.90;;;19.50;99.90;;;;;;1931485;73;21619;-77
2023/04/29 10:41:45;;;;;;;4.55;1.85;;;19.70;99.90;;;;;;1935421;73;21095;-77
2023/04/29 10:44:45;;;;;;;2.55;1.87;;;19.80;99.90;;;;;;1923431;73;21167;-77
2023/04/29 10:47:36;;;;;;;3.95;1.52;;;19.90;99.90;;;;;;1931624;73;21060;-77
2023/04/29 10:50:30;;;;;;;1.87;1.40;;;20.10;99.90;;;;;;1937930;73;21114;-77
2023/04/29 10:53:22;;;;;;;1.60;1.15;;;20.10;99.90;;;;;;1912319;75;21684;-77
2023/04/29 10:58:51;;;;;;;1.77;1.15;;;19.90;99.90;;;;;;1933351;72;22314;-77
2023/04/29 11:01:45;;;;;;;0.93;0.70;;;20.00;99.90;;;;;;1906537;75;21067;-78
2023/04/29 11:04:38;;;;;;;1.35;0.50;;;20.10;99.90;;;;;;1902030;75;21096;-77
2023/04/29 11:07:30;;;;;;;0.60;0.50;;;19.90;99.90;;;;;;1893682;75;21151;-78
2023/04/29 11:13:24;;;;;;;2.00;0.70;;;19.90;99.90;;;;;;1944262;72;22174;-77
2023/04/29 11:19:08;;;;;;;2.47;1.15;;;20.30;99.90;;;;;;1961904;72;22264;-77
2023/04/29 11:22:14;;;;;;;1.37;1.02;;;20.40;99.90;;;;;;1936243;73;21106;-77
2023/04/29 11:25:08;;;;;;;2.15;1.67;;;21.00;99.90;;;;;;1915693;73;21147;-76
2023/04/29 11:30:40;;;;;;;2.42;1.72;;;22.30;99.90;;;;;;1943025;72;22145;-77
2023/04/29 11:36:14;;;;;;;2.67;0.60;;;22.40;99.90;;;;;;1946164;72;22301;-77
2023/04/29 11:39:05;;;;;;;1.32;0.85;;;22.10;99.90;;;;;;1921918;73;21117;-77
2023/04/29 11:42:05;;;;;;;1.20;0.90;;;21.90;99.90;;;;;;1928811;73;21120;-76
2023/04/29 11:44:59;;;;;;;6.12;1.90;;;21.90;99.90;;;;;;1916974;75;21499;-77
2023/04/29 11:53:11;;;;;;;2.20;1.70;;;22.60;99.90;;;;;;1950953;72;22197;-77
2023/04/29 11:56:02;;;;;;;2.20;1.90;;;22.90;99.90;;;;;;1909644;75;21102;-77
2023/04/29 11:58:56;;;;;;;2.67;1.80;;;23.00;99.90;;;;;;1906069;75;21172;-76
2023/04/29 12:01:48;;;;;;;2.72;2.20;;;23.10;99.90;;;;;;1883938;76;21220;-76
2023/04/29 12:04:47;;;;;;;1.25;1.15;;;23.30;99.90;;;;;;1897984;75;21102;-76
2023/04/29 12:07:39;;;;;;;2.95;1.20;;;23.60;99.90;;;;;;1894696;75;21152;-77
2023/04/29 12:10:32;;;;;;;2.15;1.60;;;23.70;99.90;;;;;;1894783;75;21094;-77
2023/04/29 12:16:09;;;;;;;2.63;1.40;;;23.50;99.90;;;;;;1937702;72;27941;-77
2023/04/29 12:19:02;;;;;;;3.33;2.10;;;23.40;99.90;;;;;;1894823;74;21189;-77
2023/04/29 12:21:53;;;;;;;1.45;0.90;;;23.10;99.90;;;;;;1889632;75;21078;-76
2023/04/29 12:24:44;;;;;;;1.30;0.88;;;23.30;99.90;;;;;;1905908;75;21156;-77
2023/04/29 12:27:36;;;;;;;2.17;1.00;;;23.00;99.90;;;;;;1900777;75;21095;-77
2023/04/29 12:30:28;;;;;;;0.70;0.70;;;22.70;99.90;;;;;;1895222;75;21102;-77
2023/04/29 12:33:22;;;;;;;2.20;0.80;;;22.80;99.90;;;;;;1894701;75;21090;-77
2023/04/29 12:36:19;;;;;;;1.05;0.60;;;22.50;99.90;;;;;;1893652;75;21555;-78
2023/04/29 12:39:14;;;;;;;0.70;0.70;;;22.40;99.90;;;;;;1903484;75;21059;-77
2023/04/29 12:42:06;;;;;;;0.90;0.78;;;22.50;99.90;;;;;;1916692;75;21118;-78
2023/04/29 12:44:57;;;;;;;0.70;0.70;;;23.00;99.90;;;;;;1894105;75;21056;-77
2023/04/29 12:47:50;;;;;;;1.40;0.90;;;23.30;99.90;;;;;;1891124;75;21115;-77
2023/04/29 12:50:42;;;;;;;0.85;0.68;;;23.00;99.90;;;;;;1904658;75;21125;-77
2023/04/29 12:53:34;;;;;;;1.40;0.90;;;22.80;99.90;;;;;;1901084;75;21392;-77
2023/04/29 12:56:25;;;;;;;1.75;1.10;;;22.60;99.90;;;;;;1906319;75;21153;-77
2023/04/29 12:59:17;;;;;;;1.52;1.07;;;22.90;99.90;;;;;;1906095;75;21184;-77
2023/04/29 13:02:08;;;;;;;2.22;1.05;;;22.90;99.90;;;;;;1906094;75;21168;-77
2023/04/29 13:05:00;;;;;;;1.02;0.72;;;22.90;99.90;;;;;;1884095;76;21228;-78
2023/04/29 13:07:52;;;;;;;1.10;1.00;;;22.70;99.90;;;;;;1897839;75;21059;-77
2023/04/29 13:10:43;;;;;;;0.70;0.70;;;23.20;99.90;;;;;;1886274;75;21168;-77
2023/04/29 13:13:34;;;;;;;1.85;1.00;;;23.30;99.90;;;;;;1906031;75;21095;-77
2023/04/29 13:16:26;;;;;;;2.75;0.72;;;23.10;99.90;;;;;;1880369;75;21657;-77
2023/04/29 13:19:17;;;;;;;1.85;0.80;;;23.30;99.90;;;;;;1896135;75;21106;-77
2023/04/29 13:22:10;;;;;;;1.42;0.70;;;22.90;99.90;;;;;;1891726;75;22061;-77
2023/04/29 13:25:02;;;;;;;1.37;0.65;;;23.10;99.90;;;;;;1891935;75;21191;-77
2023/04/29 13:27:54;;;;;;;0.47;0.40;;;23.30;99.90;;;;;;1892050;75;21124;-77
2023/04/29 13:30:49;;;;;;;1.50;0.40;;;23.50;99.90;;;;;;1880662;76;21153;-77
2023/04/29 13:33:42;;;;;;;0.85;0.60;;;23.50;99.90;;;;;;1892689;75;21541;-77
2023/04/29 13:36:33;;;;;;;3.10;0.62;;;23.70;99.90;;;;;;1883623;75;21175;-77
2023/04/29 13:39:27;;;;;;;0.90;0.40;;;23.90;99.90;;;;;;1883000;75;21147;-77
2023/04/29 13:42:18;;;;;;;0.95;0.50;;;24.20;99.90;;;;;;1894202;75;21220;-78
2023/04/29 13:45:10;;;;;;;0.40;0.40;;;24.10;99.90;;;;;;1894137;75;21633;-78
2023/04/29 13:48:02;;;;;;;0.90;0.50;;;24.50;99.90;;;;;;1891465;75;21035;-78
2023/04/29 13:50:54;;;;;;;1.10;0.50;;;24.70;99.90;;;;;;1852084;76;21118;-78
2023/04/29 13:53:47;;;;;;;0.93;0.30;;;24.70;99.90;;;;;;1900740;75;21564;-77
2023/04/29 13:59:27;;;;;;;0.80;0.50;;;23.70;99.90;;;;;;1942097;72;22174;-77
2023/04/29 14:02:19;;;;;;;0.50;0.50;;;23.40;99.90;;;;;;1909452;74;21611;-79
2023/04/29 14:05:12;;;;;;;0.35;0.23;;;23.60;99.90;;;;;;1916110;74;21187;-77
2023/04/29 14:08:05;;;;;;;1.17;0.60;;;23.60;99.90;;;;;;1916961;75;21135;-78
2023/04/29 14:10:56;;;;;;;1.27;0.60;;;23.50;99.90;;;;;;1917061;75;21130;-77
2023/04/29 14:13:48;;;;;;;0.70;0.50;;;23.40;99.90;;;;;;1922465;73;21108;-77
2023/04/29 14:16:40;;;;;;;3.08;0.80;;;23.40;99.90;;;;;;1915131;74;21114;-77
2023/04/29 14:19:31;;;;;;;0.40;0.40;;;23.60;99.90;;;;;;1920640;74;21164;-77
2023/04/29 14:25:04;;;;;;;2.50;1.40;;;23.50;99.90;;;;;;1942423;72;22327;-78
2023/04/29 14:30:39;;;;;;;0.40;0.30;;;23.40;99.90;;;;;;1932557;72;22333;-77
2023/04/29 14:36:12;;;;;;;0.70;0.50;;;23.10;99.90;;;;;;1928681;72;22221;-77
2023/04/29 14:41:43;;;;;;;3.20;0.60;;;23.80;99.90;;;;;;1933044;72;22179;-78
2023/04/29 14:44:35;;;;;;;0.80;0.60;;;23.90;99.90;;;;;;1910700;74;21125;-77
2023/04/29 14:47:29;;;;;;;1.22;0.47;;;24.20;99.90;;;;;;1907216;75;21109;-77
2023/04/29 14:50:24;;;;;;;0.88;0.80;;;24.90;99.90;;;;;;1904384;75;21187;-77
2023/04/29 14:53:15;;;;;;;0.68;0.45;;;26.20;99.90;;;;;;1892966;74;21216;-77
2023/04/29 14:56:07;;;;;;;0.40;0.37;;;26.30;99.90;;;;;;1926792;74;21171;-78
2023/04/29 14:58:58;;;;;;;0.78;0.50;;;25.60;99.90;;;;;;1931632;74;21651;-82
2023/04/29 15:04:44;;;;;;;0.70;0.60;;;24.90;99.90;;;;;;1937404;72;22138;-80
2023/04/29 15:07:34;;;;;;;1.10;0.40;;;24.80;99.90;;;;;;1868977;76;21609;-81
2023/04/29 15:10:26;;;;;;;0.88;0.50;;;24.50;99.90;;;;;;1891247;75;21102;-80
2023/04/29 15:13:18;;;;;;;0.72;0.50;;;24.30;99.90;;;;;;1892928;75;21165;-80
2023/04/29 15:16:10;;;;;;;0.80;0.60;;;24.20;99.90;;;;;;1883019;75;21258;-77
2023/04/29 15:19:02;;;;;;;0.60;0.55;;;24.20;99.90;;;;;;1880698;75;21088;-77
2023/04/29 15:22:12;;;;;;;1.15;0.70;;;24.10;99.90;;;;;;1877437;75;21129;-77
2023/04/29 15:25:08;;;;;;;1.87;0.57;;;24.00;99.90;;;;;;1883813;75;21168;-81
2023/04/29 15:28:04;;;;;;;0.93;0.70;;;23.90;99.90;;;;;;1892097;75;21127;-81
2023/04/29 15:34:11;;;;;;;2.37;0.82;;;23.70;99.90;;;;;;1943097;72;22732;-78
2023/04/29 15:39:49;;;;;;;1.00;0.70;;;23.80;99.90;;;;;;1944202;72;22213;-77
2023/04/29 15:42:40;;;;;;;0.80;0.57;;;23.90;99.90;;;;;;1916998;73;21172;-77
2023/04/29 15:48:10;;;;;;;0.85;0.70;;;23.90;99.90;;;;;;1947367;72;22415;-78
2023/04/29 15:51:01;;;;;;;4.10;1.05;;;23.60;99.90;;;;;;1892820;75;21130;-77
2023/04/29 15:53:53;;;;;;;0.72;0.60;;;23.40;99.90;;;;;;1871954;76;21063;-81
2023/04/29 15:56:44;;;;;;;0.50;0.50;;;23.10;99.90;;;;;;1887930;75;21091;-76
2023/04/29 15:59:35;;;;;;;2.15;0.78;;;22.90;99.90;;;;;;1899618;75;21131;-76
2023/04/29 16:02:27;;;;;;;0.90;0.60;;;22.80;99.90;;;;;;1898641;75;21067;-76
2023/04/29 16:05:18;;;;;;;2.77;0.68;;;22.80;99.90;;;;;;1893318;75;21091;-77
2023/04/29 16:08:10;;;;;;;1.50;0.70;;;22.70;99.90;;;;;;1888784;75;21142;-78
2023/04/29 16:13:40;;;;;;;1.62;0.80;;;22.50;99.90;;;;;;1948798;72;22177;-76
2023/04/29 16:16:32;;;;;;;1.35;0.60;;;22.30;99.90;;;;;;1904022;75;21110;-77
2023/04/29 16:19:23;;;;;;;0.82;0.60;;;22.20;99.90;;;;;;1916590;75;21503;-76
2023/04/29 16:22:15;;;;;;;4.10;0.80;;;22.10;99.90;;;;;;1892315;75;21140;-77
2023/04/29 16:25:09;;;;;;;1.62;0.45;;;22.00;99.90;;;;;;1883638;75;21115;-77
2023/04/29 16:28:01;;;;;;;2.30;0.60;;;21.70;99.90;;;;;;1884671;75;21118;-77
2023/04/29 16:30:53;;;;;;;1.12;0.70;;;21.40;99.90;;;;;;1898515;75;21146;-77
2023/04/29 16:33:45;;;;;;;3.60;1.15;;;21.20;99.90;;;;;;1895876;75;21127;-77
2023/04/29 16:36:36;;;;;;;3.17;0.90;;;21.20;99.90;;;;;;1894154;75;21127;-77
2023/04/29 16:39:27;;;;;;;1.57;0.80;;;21.00;99.90;;;;;;1894097;75;21572;-77
2023/04/29 16:42:19;;;;;;;2.40;1.20;;;20.70;99.90;;;;;;1898064;75;21180;-77
2023/04/29 16:45:13;;;;;;;4.53;2.40;;;20.80;99.90;;;;;;1896108;75;21059;-77
2023/04/29 16:48:05;;;;;;;6.17;2.45;;;21.00;99.90;;;;;;1893804;75;21172;-77
2023/04/29 16:50:57;;;;;;;2.87;1.35;;;22.40;99.90;;;;;;1913466;75;21110;-77
2023/04/29 16:56:32;;;;;;;4.08;1.87;;;24.10;99.90;;;;;;1961023;72;22134;-77
2023/04/29 16:59:23;;;;;;;1.98;1.10;;;23.60;99.90;;;;;;1916279;75;21059;-77
2023/04/29 17:02:14;;;;;;;1.82;0.90;;;23.20;99.90;;;;;;1919500;73;21589;-77
2023/04/29 17:05:07;;;;;;;2.42;1.20;;;22.70;99.90;;;;;;1930272;73;21252;-77
2023/04/29 17:07:58;;;;;;;2.27;1.00;;;22.00;99.90;;;;;;1916555;75;21122;-77
2023/04/29 17:10:50;;;;;;;3.42;1.62;;;22.10;99.90;;;;;;1916469;75;21370;-77
2023/04/29 17:13:43;;;;;;;3.02;1.20;;;22.60;99.90;;;;;;1916461;75;21229;-77
2023/04/29 17:16:34;;;;;;;2.45;1.17;;;22.60;99.90;;;;;;1916552;75;21102;-76
2023/04/29 17:19:25;;;;;;;1.55;1.30;;;23.20;99.90;;;;;;1916606;75;21106;-77
2023/04/29 17:22:17;;;;;;;1.87;1.07;;;23.60;99.90;;;;;;1916472;75;21465;-77
2023/04/29 17:25:12;;;;;;;2.15;0.90;;;23.20;99.90;;;;;;1916215;75;21562;-77
2023/04/29 17:28:04;;;;;;;1.95;1.10;;;23.40;99.90;;;;;;1915723;75;21110;-77
2023/04/29 17:30:58;;;;;;;1.62;0.80;;;23.50;99.90;;;;;;1916318;75;21590;-77
2023/04/29 17:33:54;;;;;;;3.08;1.40;;;23.30;99.90;;;;;;1916501;75;21098;-77
2023/04/29 17:36:42;;;;;;;3.33;2.02;;;22.80;99.90;;;;;;1916588;75;21302;-77
2023/04/29 17:39:34;;;;;;;3.98;1.70;;;22.60;99.90;;;;;;1916400;75;21093;-76
2023/04/29 17:42:25;;;;;;;2.92;1.47;;;22.10;99.90;;;;;;1937169;73;21090;-77
2023/04/29 17:45:16;;;;;;;1.17;1.00;;;21.60;99.90;;;;;;1931077;73;21272;-77
2023/04/29 17:48:08;;;;;;;2.25;1.30;;;21.20;99.90;;;;;;1917784;73;21211;-77
2023/04/29 17:51:00;;;;;;;3.27;1.32;;;21.20;99.90;;;;;;1916644;75;21434;-77
2023/04/29 17:53:53;;;;;;;2.30;1.20;;;21.00;99.90;;;;;;1916384;75;21110;-77
2023/04/29 17:56:44;;;;;;;1.37;0.90;;;20.70;99.90;;;;;;1916537;74;21130;-77
2023/04/29 17:59:35;;;;;;;2.62;1.62;;;20.60;99.90;;;;;;1916539;75;21102;-77
2023/04/29 18:02:27;;;;;;;3.50;1.50;;;20.40;99.90;;;;;;1916407;75;21141;-76
2023/04/29 18:05:20;;;;;;;1.55;1.17;;;20.10;99.90;;;;;;1904196;75;21643;-77
2023/04/29 18:08:11;;;;;;;1.98;1.47;;;20.00;99.90;;;;;;1903518;75;21110;-77
2023/04/29 18:11:06;;;;;;;1.92;1.47;;;19.80;99.90;;;;;;1903885;75;21052;-77
2023/04/29 18:13:58;;;;;;;4.10;1.62;;;19.70;99.90;;;;;;1903565;75;21116;-77
2023/04/29 18:16:50;;;;;;;6.92;1.92;;;19.60;99.90;;;;;;1916127;75;21110;-78
2023/04/29 18:19:42;;;;;;;2.75;1.40;;;19.50;99.90;;;;;;1936193;73;21094;-76
2023/04/29 18:22:33;;;;;;;2.40;1.47;;;19.50;99.90;;;;;;1903459;75;21193;-76
2023/04/29 18:25:25;;;;;;;5.05;1.60;;;19.40;99.90;;;;;;1903428;75;21110;-77
2023/04/29 18:28:16;;;;;;;1.52;1.17;;;19.30;99.90;;;;;;1903647;75;21236;-76
2023/04/29 18:31:09;;;;;;;4.85;1.95;;;19.30;99.90;;;;;;1903706;75;21570;-77
2023/04/29 18:34:01;;;;;;;1.92;1.32;;;19.20;99.90;;;;;;1903552;75;21139;-77
2023/04/29 18:36:53;;;;;;;2.98;1.62;;;19.20;99.90;;;;;;1903671;75;21103;-77